Time;durP1;ratioP1;P1;durP2;ratioP2;P2;SDS_P1;SDS_P2;PMS_P1;PMS_P2;Temp;Humidity;BMP_temperature;BMP_pressure;BME280_temperature;BME280_humidity;BME280_pressure;Samples;Min_cycle;Max_cycle;Signal;HPM_P1;HPM_P2
2021/08/03 00:01:05;;;;;;;1.33;1.13;;;22.00;48.50;;;;;;6223528;28;20091;-74
2021/08/03 00:04:10;;;;;;;2.67;1.35;;;22.00;48.70;;;;;;6227455;28;20034;-74
2021/08/03 00:07:16;;;;;;;1.88;1.10;;;21.90;48.60;;;;;;6227744;28;20034;-74
2021/08/03 00:10:17;;;;;;;3.60;1.00;;;21.90;48.70;;;;;;6242780;28;20042;-74
2021/08/03 00:13:20;;;;;;;3.58;1.25;;;21.90;48.80;;;;;;6226297;28;20034;-73
2021/08/03 00:16:21;;;;;;;2.85;0.70;;;21.90;48.80;;;;;;6242273;28;20042;-74
2021/08/03 00:19:26;;;;;;;1.00;0.90;;;21.90;49.00;;;;;;6225792;28;20045;-75
2021/08/03 00:22:28;;;;;;;2.75;1.00;;;21.90;49.00;;;;;;6226219;28;20041;-75
2021/08/03 00:25:30;;;;;;;2.65;0.90;;;21.90;49.00;;;;;;6225966;28;20105;-75
2021/08/03 00:28:31;;;;;;;1.77;0.80;;;21.80;49.00;;;;;;6245380;28;20037;-74
2021/08/03 00:31:33;;;;;;;2.30;1.00;;;21.80;49.20;;;;;;6255303;28;20046;-74
2021/08/03 00:34:37;;;;;;;0.82;0.80;;;21.80;49.40;;;;;;6238989;28;20038;-75
2021/08/03 00:37:39;;;;;;;1.90;1.10;;;21.80;49.40;;;;;;6227395;28;20026;-75
2021/08/03 00:41:00;;;;;;;1.20;1.00;;;21.80;49.40;;;;;;6225016;28;20038;-74
2021/08/03 00:44:03;;;;;;;1.75;0.98;;;21.80;49.50;;;;;;6242032;28;20470;-75
2021/08/03 00:47:05;;;;;;;0.93;0.70;;;21.80;49.60;;;;;;6241662;28;20485;-74
2021/08/03 00:50:07;;;;;;;0.63;0.60;;;21.80;49.80;;;;;;6226502;28;20045;-75
2021/08/03 00:53:10;;;;;;;2.92;0.90;;;21.70;49.90;;;;;;6240432;28;20459;-75
2021/08/03 00:56:12;;;;;;;1.70;1.05;;;21.70;50.00;;;;;;6225140;28;20030;-75
2021/08/03 00:59:13;;;;;;;1.13;1.02;;;21.60;50.30;;;;;;6224636;28;20104;-75
2021/08/03 01:02:15;;;;;;;4.45;1.30;;;21.60;50.40;;;;;;6242337;28;20105;-75
2021/08/03 01:05:17;;;;;;;2.65;1.35;;;21.60;50.30;;;;;;6241347;28;20046;-75
2021/08/03 01:08:29;;;;;;;2.55;1.00;;;21.50;50.50;;;;;;6226143;28;20534;-75
2021/08/03 01:11:54;;;;;;;4.03;1.02;;;21.50;50.60;;;;;;6238744;28;20057;-76
2021/08/03 01:15:15;;;;;;;1.67;1.10;;;21.50;50.70;;;;;;6237560;28;20374;-76
2021/08/03 01:18:35;;;;;;;2.67;1.15;;;21.50;51.00;;;;;;6223476;28;20053;-76
2021/08/03 01:22:03;;;;;;;2.60;1.40;;;21.50;51.10;;;;;;6238409;28;20354;-77
2021/08/03 01:25:10;;;;;;;2.40;1.10;;;21.50;51.30;;;;;;6222211;28;20085;-74
2021/08/03 01:28:28;;;;;;;2.85;1.17;;;21.40;51.70;;;;;;6238268;28;20030;-74
2021/08/03 01:31:33;;;;;;;2.67;1.20;;;21.40;52.10;;;;;;6238154;28;20084;-75
2021/08/03 01:34:45;;;;;;;2.38;1.20;;;21.40;52.30;;;;;;6238074;28;20026;-74
2021/08/03 01:37:48;;;;;;;3.58;1.15;;;21.30;52.60;;;;;;6237991;28;20033;-75
2021/08/03 01:40:56;;;;;;;5.38;1.30;;;21.30;52.80;;;;;;6237285;28;20462;-74
2021/08/03 01:44:00;;;;;;;2.70;1.48;;;21.30;53.00;;;;;;6239527;28;20088;-74
2021/08/03 01:47:05;;;;;;;1.50;1.15;;;21.20;53.00;;;;;;6239404;28;20478;-74
2021/08/03 01:50:10;;;;;;;1.80;1.30;;;21.20;53.40;;;;;;6239276;28;20099;-74
2021/08/03 01:53:14;;;;;;;3.28;1.15;;;21.20;53.30;;;;;;6239914;28;20095;-74
2021/08/03 01:56:17;;;;;;;2.38;1.00;;;21.20;53.40;;;;;;6240181;28;20053;-74
2021/08/03 01:59:18;;;;;;;4.63;1.25;;;21.10;53.70;;;;;;6239224;28;20080;-74
2021/08/03 02:02:21;;;;;;;2.72;1.30;;;21.10;53.80;;;;;;6240898;28;20088;-74
2021/08/03 02:05:32;;;;;;;2.10;1.27;;;21.10;53.80;;;;;;6239886;28;20046;-74
2021/08/03 02:08:39;;;;;;;2.42;1.27;;;21.10;53.80;;;;;;6223686;28;20482;-74
2021/08/03 02:11:53;;;;;;;7.60;1.38;;;21.10;53.80;;;;;;6240206;28;20026;-74
2021/08/03 02:14:55;;;;;;;1.85;0.98;;;21.30;53.70;;;;;;6222721;28;20095;-74
2021/08/03 02:18:03;;;;;;;1.58;1.08;;;21.10;53.40;;;;;;6223007;28;20126;-74
2021/08/03 02:21:09;;;;;;;2.08;1.13;;;21.10;53.20;;;;;;6239728;28;20034;-74
2021/08/03 02:24:10;;;;;;;1.20;1.10;;;21.10;52.90;;;;;;6238499;28;20037;-74
2021/08/03 02:27:12;;;;;;;4.47;1.05;;;21.10;52.90;;;;;;6224178;28;20061;-74
2021/08/03 02:30:14;;;;;;;1.88;1.05;;;21.10;53.30;;;;;;6223523;28;20521;-74
2021/08/03 02:33:38;;;;;;;3.13;0.90;;;21.00;52.60;;;;;;6239631;28;20038;-74
2021/08/03 02:36:44;;;;;;;6.35;1.60;;;21.00;52.60;;;;;;6220366;28;20265;-74
2021/08/03 02:39:49;;;;;;;2.53;1.10;;;21.00;53.00;;;;;;6237309;28;20344;-74
2021/08/03 02:42:52;;;;;;;4.82;1.30;;;21.00;53.70;;;;;;6236938;28;20046;-74
2021/08/03 02:46:02;;;;;;;2.25;1.50;;;20.90;54.10;;;;;;6220763;28;20455;-74
2021/08/03 02:49:06;;;;;;;1.35;1.05;;;20.80;54.40;;;;;;6220259;28;20104;-74
2021/08/03 02:52:07;;;;;;;3.78;1.10;;;20.80;54.80;;;;;;6221377;28;20104;-74
2021/08/03 02:55:17;;;;;;;1.70;1.20;;;20.70;55.00;;;;;;6236237;28;20084;-74
2021/08/03 02:58:42;;;;;;;1.60;1.10;;;20.70;55.20;;;;;;6220767;28;20042;-74
2021/08/03 03:01:45;;;;;;;2.40;1.20;;;20.60;55.90;;;;;;6221738;28;20046;-74
2021/08/03 03:05:00;;;;;;;8.18;1.60;;;20.50;55.50;;;;;;6237674;28;20061;-74
2021/08/03 03:08:08;;;;;;;2.00;1.02;;;20.50;55.60;;;;;;6237612;28;20042;-74
2021/08/03 03:11:12;;;;;;;3.70;1.17;;;20.50;55.70;;;;;;6238012;28;20037;-74
2021/08/03 03:14:15;;;;;;;4.13;1.30;;;20.50;55.50;;;;;;6222105;28;20340;-74
2021/08/03 03:17:19;;;;;;;1.67;1.10;;;20.50;55.50;;;;;;6237551;28;20048;-74
2021/08/03 03:20:22;;;;;;;6.78;1.45;;;20.50;55.50;;;;;;6238879;28;20121;-74
2021/08/03 03:23:25;;;;;;;6.30;1.52;;;20.50;55.60;;;;;;6222594;28;20033;-74
2021/08/03 03:26:32;;;;;;;4.80;1.30;;;20.50;55.50;;;;;;6190522;28;20073;-74
2021/08/03 03:29:38;;;;;;;5.75;1.38;;;20.50;55.40;;;;;;6237504;28;20076;-74
2021/08/03 03:32:43;;;;;;;6.03;1.10;;;20.50;55.10;;;;;;6238012;28;20096;-74
2021/08/03 03:35:47;;;;;;;2.83;1.23;;;20.50;54.80;;;;;;6241589;28;20034;-74
2021/08/03 03:38:51;;;;;;;1.90;1.10;;;20.50;54.50;;;;;;6243177;28;20057;-73
2021/08/03 03:41:56;;;;;;;1.67;1.30;;;20.50;54.40;;;;;;6242374;28;20037;-74
2021/08/03 03:44:58;;;;;;;7.32;1.17;;;20.40;54.30;;;;;;6243296;28;20030;-74
2021/08/03 03:48:09;;;;;;;7.47;2.15;;;20.40;54.30;;;;;;6243279;28;20042;-74
2021/08/03 03:51:15;;;;;;;1.52;1.10;;;20.40;54.30;;;;;;6241400;28;20045;-74
2021/08/03 03:54:22;;;;;;;3.13;1.25;;;20.30;54.40;;;;;;6226713;28;20053;-74
2021/08/03 03:57:24;;;;;;;4.97;1.35;;;20.30;54.40;;;;;;6241413;28;20038;-74
2021/08/03 04:00:28;;;;;;;2.85;1.40;;;20.30;54.50;;;;;;6241090;28;20049;-74
2021/08/03 04:03:36;;;;;;;4.88;1.40;;;20.30;54.60;;;;;;6242397;28;20030;-74
2021/08/03 04:06:38;;;;;;;1.65;1.40;;;20.30;55.10;;;;;;6240654;28;20096;-74
2021/08/03 04:09:41;;;;;;;2.63;1.38;;;20.30;55.50;;;;;;6241759;28;20088;-74
2021/08/03 04:12:47;;;;;;;3.55;1.77;;;20.30;55.60;;;;;;6240986;28;20087;-74
2021/08/03 04:15:49;;;;;;;2.70;1.55;;;20.30;55.80;;;;;;6241523;28;20061;-74
2021/08/03 04:18:51;;;;;;;1.25;1.02;;;20.30;55.80;;;;;;6224965;28;20058;-74
2021/08/03 04:21:52;;;;;;;2.47;1.60;;;20.30;56.00;;;;;;6241108;28;20068;-74
2021/08/03 04:24:53;;;;;;;6.57;1.65;;;20.30;56.10;;;;;;6226143;28;20033;-74
2021/08/03 04:27:54;;;;;;;6.22;1.67;;;20.20;55.90;;;;;;6226039;28;20034;-74
2021/08/03 04:30:55;;;;;;;1.70;1.25;;;20.30;55.80;;;;;;6241310;28;20470;-74
2021/08/03 04:33:56;;;;;;;1.77;1.30;;;20.30;55.80;;;;;;6226743;28;20372;-74
2021/08/03 04:36:57;;;;;;;1.38;1.25;;;20.30;55.90;;;;;;6240934;28;20041;-74
2021/08/03 04:39:58;;;;;;;2.30;1.13;;;20.20;56.10;;;;;;6224578;28;20109;-75
2021/08/03 04:43:00;;;;;;;2.47;1.40;;;20.30;56.30;;;;;;6224358;28;20034;-74
2021/08/03 04:46:01;;;;;;;2.15;1.30;;;20.20;56.50;;;;;;6221954;28;20030;-74
2021/08/03 04:49:03;;;;;;;1.92;1.20;;;20.20;56.60;;;;;;6225679;28;20034;-74
2021/08/03 04:52:04;;;;;;;4.00;1.40;;;20.10;56.50;;;;;;6240510;28;20419;-75
2021/08/03 04:55:06;;;;;;;2.38;1.60;;;20.10;56.60;;;;;;6224171;28;20049;-74
2021/08/03 04:58:07;;;;;;;2.28;1.30;;;20.20;56.80;;;;;;6225033;28;20045;-74
2021/08/03 05:01:08;;;;;;;5.60;1.40;;;20.20;57.30;;;;;;6240409;28;20044;-74
2021/08/03 05:04:09;;;;;;;1.67;1.10;;;20.20;56.60;;;;;;6241160;28;20038;-74
2021/08/03 05:07:11;;;;;;;1.83;1.30;;;20.10;56.40;;;;;;6224947;28;20041;-74
2021/08/03 05:10:13;;;;;;;2.70;1.33;;;20.10;56.20;;;;;;6240030;28;22001;-74
2021/08/03 05:13:14;;;;;;;2.20;1.30;;;20.10;56.00;;;;;;6224779;28;20026;-74
2021/08/03 05:16:16;;;;;;;3.05;1.60;;;20.10;55.70;;;;;;6223528;28;20049;-74
2021/08/03 05:19:17;;;;;;;5.28;1.13;;;20.20;55.50;;;;;;6223648;28;20030;-74
2021/08/03 05:22:18;;;;;;;2.70;1.52;;;20.20;55.10;;;;;;6223477;28;20112;-75
2021/08/03 05:25:19;;;;;;;2.42;1.20;;;20.30;54.80;;;;;;6223194;28;20033;-74
2021/08/03 05:28:20;;;;;;;4.32;1.20;;;20.30;54.60;;;;;;6224569;28;20052;-74
2021/08/03 05:31:21;;;;;;;7.00;1.35;;;20.30;54.40;;;;;;6224190;28;20041;-74
2021/08/03 05:34:22;;;;;;;2.65;1.15;;;20.40;54.10;;;;;;6199920;28;20049;-74
2021/08/03 05:37:23;;;;;;;3.33;1.17;;;20.50;53.90;;;;;;6198963;28;20528;-74
2021/08/03 05:40:24;;;;;;;2.13;1.50;;;20.60;53.60;;;;;;6182348;28;20038;-74
2021/08/03 05:43:25;;;;;;;9.63;1.70;;;20.60;53.40;;;;;;6215024;28;20062;-74
2021/08/03 05:46:26;;;;;;;3.78;1.65;;;20.70;53.40;;;;;;6214927;28;20114;-74
2021/08/03 05:49:27;;;;;;;1.80;1.30;;;20.70;53.30;;;;;;6214657;28;20108;-74
2021/08/03 05:52:28;;;;;;;4.82;1.48;;;20.80;53.20;;;;;;6198318;28;20049;-75
2021/08/03 05:55:29;;;;;;;4.53;1.40;;;20.80;53.10;;;;;;6199386;28;20329;-74
2021/08/03 05:58:30;;;;;;;1.30;1.20;;;20.90;53.00;;;;;;6198937;28;20065;-74
2021/08/03 06:01:32;;;;;;;2.28;1.48;;;20.90;52.90;;;;;;6213310;28;20057;-74
2021/08/03 06:04:33;;;;;;;2.72;1.33;;;20.90;52.80;;;;;;6222297;28;20042;-74
2021/08/03 06:07:44;;;;;;;2.10;1.30;;;21.00;52.70;;;;;;6222344;28;20447;-75
2021/08/03 06:10:49;;;;;;;2.20;1.33;;;21.00;52.40;;;;;;6238563;28;20038;-74
2021/08/03 06:13:56;;;;;;;4.18;1.20;;;21.10;52.30;;;;;;6223267;28;20061;-75
2021/08/03 06:17:08;;;;;;;2.03;1.10;;;21.10;52.10;;;;;;6221947;28;20033;-75
2021/08/03 06:20:09;;;;;;;3.15;1.20;;;21.20;51.80;;;;;;6222067;28;20455;-75
2021/08/03 06:23:12;;;;;;;2.85;1.60;;;21.30;51.60;;;;;;6238183;28;20049;-75
2021/08/03 06:26:14;;;;;;;2.70;1.20;;;21.40;51.30;;;;;;6221573;28;20482;-75
2021/08/03 06:29:17;;;;;;;2.10;1.33;;;21.50;51.00;;;;;;6221371;28;20042;-75
2021/08/03 06:32:18;;;;;;;4.18;1.10;;;21.60;50.70;;;;;;6222578;28;20664;-75
2021/08/03 06:35:20;;;;;;;6.55;1.42;;;21.60;50.40;;;;;;6222467;28;20049;-73
2021/08/03 06:38:21;;;;;;;6.68;1.58;;;21.80;50.30;;;;;;6222466;28;20030;-73
2021/08/03 06:41:32;;;;;;;1.92;1.40;;;21.90;50.10;;;;;;6222493;28;20034;-74
2021/08/03 06:44:43;;;;;;;5.30;1.15;;;22.10;49.90;;;;;;6237503;28;20375;-75
2021/08/03 06:47:49;;;;;;;4.00;1.35;;;22.30;49.50;;;;;;6236945;28;20034;-73
2021/08/03 06:51:01;;;;;;;3.22;1.15;;;22.40;49.20;;;;;;6221146;28;20037;-74
2021/08/03 06:54:07;;;;;;;7.07;1.70;;;22.40;48.90;;;;;;6237440;28;20064;-74
2021/08/03 06:57:11;;;;;;;2.38;1.27;;;22.50;48.90;;;;;;6221590;28;20061;-75
2021/08/03 07:00:13;;;;;;;2.38;1.20;;;22.50;48.90;;;;;;6221677;28;20056;-73
2021/08/03 07:03:22;;;;;;;1.40;1.17;;;22.50;48.90;;;;;;6221346;28;20034;-75
2021/08/03 07:06:24;;;;;;;3.53;1.30;;;22.40;48.80;;;;;;6237411;28;20037;-74
2021/08/03 07:09:26;;;;;;;3.05;1.48;;;22.40;49.00;;;;;;6238633;28;20029;-74
2021/08/03 07:12:28;;;;;;;5.40;1.40;;;22.40;49.10;;;;;;6242428;28;20042;-74
2021/08/03 07:15:29;;;;;;;3.78;1.67;;;22.50;49.10;;;;;;6227476;28;20092;-75
2021/08/03 07:18:31;;;;;;;2.40;1.60;;;22.70;48.90;;;;;;6225950;28;20061;-75
2021/08/03 07:21:33;;;;;;;2.58;1.50;;;22.90;48.60;;;;;;6242437;28;20049;-76
2021/08/03 07:24:34;;;;;;;7.25;1.58;;;23.10;48.20;;;;;;6242063;28;20038;-75
2021/08/03 07:27:36;;;;;;;4.38;1.50;;;23.20;47.90;;;;;;6242104;28;20061;-75
2021/08/03 07:30:37;;;;;;;2.55;1.48;;;23.40;47.90;;;;;;6241973;28;20042;-75
2021/08/03 07:33:39;;;;;;;5.90;1.40;;;23.50;47.60;;;;;;6227034;28;20030;-75
2021/08/03 07:36:40;;;;;;;18.95;1.60;;;23.60;47.30;;;;;;6241662;28;20042;-75
2021/08/03 07:39:43;;;;;;;5.38;1.40;;;23.70;47.30;;;;;;6241584;28;20071;-75
2021/08/03 07:42:45;;;;;;;6.25;1.60;;;23.80;47.50;;;;;;6241672;28;20033;-74
2021/08/03 07:45:46;;;;;;;7.32;1.33;;;23.80;47.40;;;;;;6226637;28;20104;-74
2021/08/03 07:48:52;;;;;;;3.08;1.30;;;23.80;47.50;;;;;;6241992;28;20455;-74
2021/08/03 07:51:53;;;;;;;3.25;1.65;;;23.80;47.30;;;;;;6226488;28;20135;-74
2021/08/03 07:54:54;;;;;;;2.45;1.60;;;23.90;46.90;;;;;;6241624;28;20049;-74
2021/08/03 07:57:55;;;;;;;3.33;1.90;;;24.00;46.60;;;;;;6225505;28;20033;-74
2021/08/03 08:00:56;;;;;;;2.35;1.88;;;24.10;46.10;;;;;;6226715;28;20044;-75
2021/08/03 08:03:57;;;;;;;6.13;1.73;;;24.20;46.00;;;;;;6226985;28;20049;-75
2021/08/03 08:06:58;;;;;;;4.68;1.67;;;24.40;45.80;;;;;;6240575;28;20034;-75
2021/08/03 08:09:59;;;;;;;1.70;1.50;;;24.60;45.60;;;;;;6241478;28;20466;-75
2021/08/03 08:13:00;;;;;;;3.13;1.60;;;24.80;45.20;;;;;;6224862;28;20048;-75
2021/08/03 08:16:01;;;;;;;2.80;1.60;;;25.00;44.70;;;;;;6225228;28;20049;-75
2021/08/03 08:19:03;;;;;;;3.63;2.13;;;25.20;44.40;;;;;;6240826;28;20113;-75
2021/08/03 08:22:05;;;;;;;2.95;1.25;;;25.30;44.40;;;;;;6240686;28;20188;-74
2021/08/03 08:25:10;;;;;;;7.47;1.58;;;25.40;43.20;;;;;;6241030;28;20038;-75
2021/08/03 08:28:11;;;;;;;2.17;1.50;;;25.30;43.20;;;;;;6240426;28;20119;-75
2021/08/03 08:31:12;;;;;;;1.83;1.25;;;25.30;43.20;;;;;;6224722;28;20324;-76
2021/08/03 08:34:13;;;;;;;2.17;1.33;;;25.30;43.10;;;;;;6226039;28;20466;-75
2021/08/03 08:37:14;;;;;;;1.85;1.35;;;25.30;43.00;;;;;;6224036;28;20034;-75
2021/08/03 08:40:18;;;;;;;1.25;1.10;;;25.40;42.70;;;;;;6223585;28;20045;-74
2021/08/03 08:43:19;;;;;;;6.60;1.02;;;25.40;42.50;;;;;;6224631;28;20042;-74
2021/08/03 08:46:20;;;;;;;1.30;1.13;;;25.40;42.30;;;;;;6223858;28;20339;-75
2021/08/03 08:49:22;;;;;;;4.18;1.70;;;25.50;42.10;;;;;;6224169;28;20176;-75
2021/08/03 08:52:23;;;;;;;1.33;1.00;;;25.50;42.10;;;;;;6223383;28;20048;-75
2021/08/03 08:55:25;;;;;;;5.00;1.65;;;25.60;41.90;;;;;;6238818;28;20038;-74
2021/08/03 08:58:26;;;;;;;2.08;1.20;;;25.80;41.70;;;;;;6239098;28;20370;-75
2021/08/03 09:01:27;;;;;;;5.50;1.55;;;25.90;41.30;;;;;;6239609;28;20085;-75
2021/08/03 09:04:28;;;;;;;3.63;1.60;;;26.00;41.00;;;;;;6240221;28;20115;-75
2021/08/03 09:07:30;;;;;;;4.43;1.50;;;26.20;40.90;;;;;;6224253;28;20036;-75
2021/08/03 09:10:40;;;;;;;4.35;1.10;;;26.40;40.60;;;;;;6221193;28;20045;-75
2021/08/03 09:13:50;;;;;;;5.30;1.17;;;26.60;40.30;;;;;;6222930;28;20026;-75
2021/08/03 09:16:52;;;;;;;2.60;1.40;;;26.70;39.80;;;;;;6238742;28;20033;-75
2021/08/03 09:19:54;;;;;;;2.30;1.20;;;26.90;39.50;;;;;;6223387;28;20367;-74
2021/08/03 09:22:55;;;;;;;4.20;1.20;;;26.90;39.00;;;;;;6222573;28;20060;-75
2021/08/03 09:25:57;;;;;;;3.10;1.30;;;26.90;39.10;;;;;;6238835;28;20081;-75
2021/08/03 09:29:07;;;;;;;0.95;0.90;;;26.90;39.00;;;;;;6222037;28;20029;-75
2021/08/03 09:32:08;;;;;;;2.15;1.38;;;27.10;38.80;;;;;;6239339;28;20045;-75
2021/08/03 09:35:13;;;;;;;2.53;1.00;;;27.30;38.50;;;;;;6223248;28;20033;-76
2021/08/03 09:38:15;;;;;;;1.73;1.02;;;27.40;38.30;;;;;;6238834;28;20355;-75
2021/08/03 09:41:16;;;;;;;2.25;1.45;;;27.50;38.20;;;;;;6238208;28;20371;-75
2021/08/03 09:44:17;;;;;;;8.70;1.73;;;27.50;38.00;;;;;;6221790;28;20038;-75
2021/08/03 09:47:20;;;;;;;2.72;1.35;;;27.60;38.10;;;;;;6223041;28;20034;-76
2021/08/03 09:50:21;;;;;;;6.50;1.30;;;27.70;38.10;;;;;;6237537;28;20521;-75
2021/08/03 09:53:42;;;;;;;5.70;1.55;;;27.70;38.00;;;;;;6237782;28;20041;-76
2021/08/03 09:56:43;;;;;;;5.90;1.75;;;27.80;38.00;;;;;;6222992;28;20044;-76
2021/08/03 09:59:44;;;;;;;1.67;1.10;;;27.80;37.90;;;;;;6221327;28;20117;-76
2021/08/03 10:02:46;;;;;;;1.98;1.25;;;27.80;38.00;;;;;;6219680;28;20036;-75
2021/08/03 10:05:49;;;;;;;4.07;1.63;;;27.80;38.10;;;;;;6221743;28;20054;-76
2021/08/03 10:08:52;;;;;;;3.95;1.30;;;27.90;38.00;;;;;;6221470;28;20399;-75
2021/08/03 10:11:57;;;;;;;2.50;1.40;;;28.20;37.90;;;;;;6221552;28;20139;-77
2021/08/03 10:14:58;;;;;;;5.78;1.30;;;28.30;37.30;;;;;;6221618;28;20038;-74
2021/08/03 10:18:00;;;;;;;4.70;1.58;;;28.40;37.20;;;;;;6237936;28;20364;-74
2021/08/03 10:21:02;;;;;;;1.92;1.30;;;28.40;37.10;;;;;;6204824;28;20091;-75
2021/08/03 10:24:27;;;;;;;1.75;1.13;;;28.30;37.10;;;;;;6221390;28;20037;-75
2021/08/03 10:27:46;;;;;;;3.78;1.42;;;28.20;37.40;;;;;;6234203;28;20033;-75
2021/08/03 10:30:47;;;;;;;5.82;1.45;;;28.10;37.50;;;;;;6217845;28;20041;-75
2021/08/03 10:33:48;;;;;;;3.63;1.23;;;28.10;37.70;;;;;;6228753;28;20049;-76
2021/08/03 10:36:50;;;;;;;3.83;1.27;;;28.20;37.70;;;;;;6218523;28;20042;-76
2021/08/03 10:39:54;;;;;;;4.75;1.00;;;28.10;37.50;;;;;;6236179;28;20454;-75
2021/08/03 10:43:13;;;;;;;2.65;1.33;;;28.10;37.30;;;;;;6219547;28;20033;-75
2021/08/03 10:46:14;;;;;;;1.85;1.05;;;28.10;37.30;;;;;;6219953;28;20099;-77
2021/08/03 10:49:54;;;;;;;4.78;1.38;;;28.10;37.10;;;;;;6220901;28;20050;-75
2021/08/03 10:52:58;;;;;;;7.53;1.27;;;28.20;37.20;;;;;;6218192;28;20490;-75
2021/08/03 10:55:59;;;;;;;5.55;1.45;;;28.40;36.90;;;;;;6217712;28;20061;-74
2021/08/03 10:59:32;;;;;;;9.43;1.90;;;28.40;36.80;;;;;;6233979;28;20046;-74
2021/08/03 11:02:41;;;;;;;1.55;1.02;;;28.40;36.90;;;;;;6217608;28;20035;-76
2021/08/03 11:05:42;;;;;;;3.03;1.27;;;28.90;36.10;;;;;;6212040;28;20043;-76
2021/08/03 11:08:45;;;;;;;4.05;1.30;;;29.20;35.50;;;;;;6218552;28;20033;-74
2021/08/03 11:11:46;;;;;;;6.55;1.13;;;29.30;35.50;;;;;;6219619;28;20081;-75
2021/08/03 11:14:47;;;;;;;34.80;2.85;;;29.30;35.30;;;;;;6234002;28;20096;-75
2021/08/03 11:18:02;;;;;;;5.97;1.30;;;29.50;35.30;;;;;;6218166;28;20392;-74
2021/08/03 11:21:04;;;;;;;7.95;1.55;;;29.50;35.20;;;;;;6234035;28;20116;-75
2021/08/03 11:24:14;;;;;;;8.27;1.10;;;29.50;35.20;;;;;;6219205;28;20465;-75
2021/08/03 11:27:25;;;;;;;4.88;1.50;;;29.50;35.20;;;;;;6218585;28;20037;-74
2021/08/03 11:30:26;;;;;;;3.85;1.02;;;30.00;34.90;;;;;;6201434;28;20086;-74
2021/08/03 11:33:27;;;;;;;2.08;1.10;;;30.70;34.00;;;;;;6232652;28;20455;-74
2021/08/03 11:36:28;;;;;;;1.38;1.17;;;30.90;33.40;;;;;;6234000;28;20125;-75
2021/08/03 11:39:36;;;;;;;4.95;1.42;;;30.90;33.30;;;;;;6226488;28;20034;-75
2021/08/03 11:42:38;;;;;;;4.15;1.13;;;30.60;33.40;;;;;;6219036;28;20041;-75
2021/08/03 11:45:40;;;;;;;13.52;1.40;;;30.30;33.80;;;;;;6234632;28;20165;-75
2021/08/03 11:48:41;;;;;;;1.88;1.00;;;30.10;34.10;;;;;;6235344;28;20026;-74
2021/08/03 11:51:46;;;;;;;6.22;1.00;;;30.00;34.10;;;;;;6234727;28;20042;-74
2021/08/03 11:54:54;;;;;;;4.25;1.20;;;29.90;34.30;;;;;;6221097;28;20068;-74
2021/08/03 11:57:55;;;;;;;1.40;1.00;;;30.00;34.30;;;;;;6240435;28;20129;-74
2021/08/03 12:00:58;;;;;;;1.90;0.90;;;30.20;34.10;;;;;;6240735;28;20034;-75
2021/08/03 12:04:15;;;;;;;4.63;1.52;;;30.30;33.50;;;;;;6241552;28;20458;-74
2021/08/03 12:07:16;;;;;;;6.30;1.10;;;30.60;33.00;;;;;;6240104;28;20073;-75
2021/08/03 12:10:20;;;;;;;1.92;1.40;;;30.80;32.60;;;;;;6225422;28;20293;-75
2021/08/03 12:13:31;;;;;;;1.90;1.00;;;31.10;32.40;;;;;;6240889;28;20430;-75
2021/08/03 12:16:32;;;;;;;3.42;1.20;;;31.40;32.10;;;;;;6224843;28;20352;-75
2021/08/03 12:19:35;;;;;;;1.48;1.00;;;31.40;31.90;;;;;;6225152;28;20038;-75
2021/08/03 12:22:36;;;;;;;3.60;1.10;;;31.30;32.00;;;;;;6225414;28;20068;-74
2021/08/03 12:26:03;;;;;;;2.90;1.05;;;31.20;32.00;;;;;;6240454;28;20391;-74
2021/08/03 12:29:04;;;;;;;1.05;0.75;;;31.10;32.20;;;;;;6239739;28;20041;-74
2021/08/03 12:32:05;;;;;;;2.88;0.88;;;31.10;32.00;;;;;;6224577;28;20114;-74
2021/08/03 12:35:13;;;;;;;6.03;1.30;;;30.90;32.00;;;;;;6223525;28;20034;-74
2021/08/03 12:38:17;;;;;;;5.07;1.02;;;30.80;32.20;;;;;;6224541;28;20038;-74
2021/08/03 12:41:21;;;;;;;2.33;1.60;;;30.80;32.30;;;;;;6224106;28;20390;-74
2021/08/03 12:44:30;;;;;;;1.05;0.90;;;30.60;32.10;;;;;;6224666;28;20038;-74
2021/08/03 12:47:32;;;;;;;1.23;1.00;;;30.50;31.90;;;;;;6223403;28;20124;-75
2021/08/03 12:50:49;;;;;;;1.00;0.90;;;30.40;31.80;;;;;;6239308;28;20049;-75
2021/08/03 12:53:50;;;;;;;7.88;1.25;;;30.10;32.10;;;;;;6239180;28;20061;-75
2021/08/03 12:56:59;;;;;;;2.63;0.90;;;30.00;32.90;;;;;;6224001;28;20030;-74
2021/08/03 13:00:00;;;;;;;3.92;1.10;;;29.80;33.60;;;;;;6238846;28;20501;-74
2021/08/03 13:03:07;;;;;;;2.85;1.00;;;29.60;33.80;;;;;;6238799;28;20061;-74
2021/08/03 13:06:08;;;;;;;5.53;1.40;;;29.30;34.00;;;;;;6238663;28;20030;-74
2021/08/03 13:09:09;;;;;;;2.58;1.05;;;29.10;34.40;;;;;;6222833;28;20033;-74
2021/08/03 13:12:13;;;;;;;5.13;1.15;;;28.80;35.50;;;;;;6222857;28;20041;-74
2021/08/03 13:15:14;;;;;;;7.55;1.50;;;28.50;36.50;;;;;;6223859;28;20363;-75
2021/08/03 13:18:15;;;;;;;4.07;1.92;;;28.30;37.70;;;;;;6238878;28;20034;-74
2021/08/03 13:21:16;;;;;;;4.45;1.10;;;28.10;38.50;;;;;;6223636;28;20050;-74
2021/08/03 13:24:17;;;;;;;4.25;1.25;;;28.00;39.00;;;;;;6238727;28;20037;-74
2021/08/03 13:27:18;;;;;;;2.22;1.10;;;27.90;39.30;;;;;;6238508;28;20048;-75
2021/08/03 13:30:19;;;;;;;2.25;1.10;;;27.90;39.50;;;;;;6238510;28;20104;-75
2021/08/03 13:33:21;;;;;;;7.18;1.42;;;27.90;40.00;;;;;;6224765;28;20061;-75
2021/08/03 13:36:22;;;;;;;6.82;1.35;;;27.80;40.20;;;;;;6238927;28;20125;-75
2021/08/03 13:39:23;;;;;;;3.08;1.13;;;27.80;40.40;;;;;;6224055;28;20049;-74
2021/08/03 13:42:24;;;;;;;3.28;1.15;;;27.70;40.50;;;;;;6241918;28;20072;-76
2021/08/03 13:45:25;;;;;;;5.93;2.00;;;27.70;41.00;;;;;;6251455;28;20102;-73
2021/08/03 13:48:26;;;;;;;2.45;1.35;;;27.60;43.20;;;;;;6248266;28;20104;-74
2021/08/03 13:51:29;;;;;;;3.97;1.58;;;27.50;43.90;;;;;;6252209;28;20057;-74
2021/08/03 13:54:30;;;;;;;8.05;1.60;;;27.30;44.20;;;;;;6228785;28;20041;-74
2021/08/03 13:57:31;;;;;;;1.98;1.67;;;27.10;44.90;;;;;;6238714;28;20066;-75
2021/08/03 14:00:32;;;;;;;2.33;1.70;;;27.00;45.40;;;;;;6238300;28;20057;-75
2021/08/03 14:03:34;;;;;;;2.72;1.83;;;26.90;45.70;;;;;;6223598;28;20037;-75
2021/08/03 14:06:35;;;;;;;4.50;1.63;;;26.80;46.20;;;;;;6236678;28;20034;-75
2021/08/03 14:09:36;;;;;;;2.38;1.63;;;26.80;46.00;;;;;;6238399;28;20036;-74
2021/08/03 14:12:37;;;;;;;2.58;1.63;;;26.70;46.10;;;;;;6238594;28;20124;-74
2021/08/03 14:15:38;;;;;;;3.85;1.85;;;26.70;46.40;;;;;;6238207;28;20068;-75
2021/08/03 14:18:40;;;;;;;2.45;1.33;;;26.60;46.70;;;;;;6237932;28;20034;-75
2021/08/03 14:21:41;;;;;;;5.90;1.83;;;26.50;46.70;;;;;;6222305;28;20026;-75
2021/08/03 14:24:42;;;;;;;2.65;1.63;;;26.40;46.80;;;;;;6237867;28;20052;-75
2021/08/03 14:27:43;;;;;;;5.93;1.88;;;26.30;46.70;;;;;;6222295;28;20038;-75
2021/08/03 14:30:44;;;;;;;2.85;1.60;;;26.20;46.90;;;;;;6222316;28;20493;-75
2021/08/03 14:33:45;;;;;;;5.15;1.70;;;26.20;47.00;;;;;;6223609;28;20034;-75
2021/08/03 14:36:46;;;;;;;2.85;1.85;;;26.20;46.80;;;;;;6238204;28;20054;-75
2021/08/03 14:39:47;;;;;;;3.63;1.77;;;26.50;46.90;;;;;;6222525;28;20033;-75
2021/08/03 14:42:48;;;;;;;3.83;1.90;;;26.10;46.60;;;;;;6237819;28;20026;-75
2021/08/03 14:45:49;;;;;;;4.28;1.88;;;26.20;46.70;;;;;;6221268;28;20049;-75
2021/08/03 14:48:50;;;;;;;1.60;1.27;;;26.20;46.90;;;;;;6221149;28;20041;-75
2021/08/03 14:51:52;;;;;;;3.47;1.98;;;26.20;47.00;;;;;;6221749;28;20106;-74
2021/08/03 14:54:53;;;;;;;2.20;1.50;;;26.10;46.90;;;;;;6222204;28;20041;-75
2021/08/03 14:57:54;;;;;;;4.63;1.15;;;26.10;47.00;;;;;;6236854;28;20046;-75
2021/08/03 15:00:55;;;;;;;1.88;1.50;;;26.10;46.40;;;;;;6237244;28;20122;-75
2021/08/03 15:03:56;;;;;;;2.78;1.85;;;26.10;46.20;;;;;;6220328;28;20404;-75
2021/08/03 15:06:57;;;;;;;3.97;1.70;;;26.00;46.40;;;;;;6221547;28;20515;-75
2021/08/03 15:09:58;;;;;;;3.72;1.50;;;26.00;46.50;;;;;;6221046;28;20053;-75
2021/08/03 15:12:59;;;;;;;5.28;1.65;;;26.00;46.30;;;;;;6236262;28;20040;-75
2021/08/03 15:16:00;;;;;;;7.40;3.15;;;26.00;46.30;;;;;;6221998;28;20038;-75
2021/08/03 15:19:01;;;;;;;3.05;1.75;;;26.00;46.90;;;;;;6220900;28;20030;-75
2021/08/03 15:22:03;;;;;;;3.53;1.70;;;26.00;47.20;;;;;;6220242;28;20038;-75
2021/08/03 15:25:05;;;;;;;3.92;1.80;;;26.00;47.20;;;;;;6221634;28;20030;-75
2021/08/03 15:28:06;;;;;;;2.97;1.80;;;26.00;47.40;;;;;;6221917;28;20038;-75
2021/08/03 15:31:07;;;;;;;6.45;3.17;;;26.00;47.80;;;;;;6220791;28;20088;-75
2021/08/03 15:34:08;;;;;;;6.57;2.67;;;26.00;48.30;;;;;;6226027;28;20080;-75
2021/08/03 15:37:09;;;;;;;5.38;2.40;;;26.10;48.70;;;;;;6225125;28;20026;-75
2021/08/03 15:40:11;;;;;;;8.32;2.35;;;26.20;48.90;;;;;;6226565;28;20084;-75
2021/08/03 15:43:12;;;;;;;5.75;2.15;;;26.20;48.90;;;;;;6241205;28;20061;-75
2021/08/03 15:46:14;;;;;;;3.58;1.90;;;26.20;49.10;;;;;;6241341;28;20042;-75
2021/08/03 15:49:15;;;;;;;5.28;3.15;;;26.30;49.10;;;;;;6224548;28;20046;-74
2021/08/03 15:52:16;;;;;;;5.28;2.58;;;26.30;49.20;;;;;;6224549;28;20057;-74
2021/08/03 15:55:17;;;;;;;3.63;1.83;;;26.40;49.30;;;;;;6203525;28;20045;-74